createdAt,value
2022-11-20T00:00:41.605Z,26.30
2022-11-20T00:05:48.991Z,30.90
2022-11-20T00:10:54.835Z,19.07
2022-11-20T00:16:01.943Z,28.07
2022-11-20T00:21:10.431Z,25.47
2022-11-20T00:26:18.253Z,25.77
2022-11-20T00:31:25.882Z,26.42
2022-11-20T00:36:33.998Z,27.63
2022-11-20T00:41:39.436Z,25.85
2022-11-20T00:46:45.652Z,25.97
2022-11-20T00:51:50.604Z,25.67
2022-11-20T00:56:56.293Z,23.13
2022-11-20T01:02:01.755Z,25.80
2022-11-20T01:07:07.389Z,22.63
2022-11-20T01:12:12.740Z,22.50
2022-11-20T01:17:18.544Z,29.45
2022-11-20T01:22:24.490Z,25.27
2022-11-20T01:27:29.549Z,30.17
2022-11-20T01:32:35.704Z,28.00
2022-11-20T01:37:40.960Z,23.85
2022-11-20T01:43:07.206Z,25.27
2022-11-20T01:48:13.307Z,26.63
2022-11-20T01:53:21.700Z,24.23
2022-11-20T01:58:30.136Z,23.10
2022-11-20T02:03:35.861Z,24.90
2022-11-20T02:08:42.074Z,24.03
2022-11-20T02:18:53.678Z,22.82
2022-11-20T02:24:07.602Z,25.77
2022-11-20T02:29:13.501Z,24.10
2022-11-20T02:34:18.704Z,24.30
2022-11-20T02:39:28.728Z,23.20
2022-11-20T02:44:34.498Z,21.73
2022-11-20T02:49:40.094Z,17.73
2022-11-20T02:54:45.587Z,23.97
2022-11-20T02:59:51.154Z,23.10
2022-11-20T03:04:56.669Z,20.60
2022-11-20T03:10:01.884Z,22.73
2022-11-20T03:15:07.933Z,25.00
2022-11-20T03:20:13.591Z,21.87
2022-11-20T03:25:18.552Z,23.70
2022-11-20T03:30:29.184Z,22.73
2022-11-20T03:35:31.538Z,21.73
2022-11-20T03:40:36.763Z,21.43
2022-11-20T03:45:41.660Z,22.30
2022-11-20T03:50:48.190Z,22.87
2022-11-20T03:55:54.428Z,24.27
2022-11-20T04:06:07.578Z,22.90
2022-11-20T04:11:27.162Z,24.20
2022-11-20T04:16:35.060Z,22.60
2022-11-20T04:21:40.707Z,23.85
2022-11-20T04:26:45.649Z,22.13
2022-11-20T04:31:51.478Z,22.85
2022-11-20T04:36:56.440Z,14.67
2022-11-20T04:42:19.452Z,22.60
2022-11-20T04:47:24.607Z,22.57
2022-11-20T04:52:30.168Z,21.70
2022-11-20T04:57:35.631Z,20.53
2022-11-20T05:02:41.034Z,21.30
2022-11-20T05:07:47.015Z,22.10
2022-11-20T05:12:52.011Z,20.13
2022-11-20T05:17:57.160Z,20.85
2022-11-20T05:23:02.584Z,20.77
2022-11-20T05:28:07.551Z,19.30
2022-11-20T05:33:13.033Z,19.60
2022-11-20T05:38:18.287Z,20.10
2022-11-20T05:43:24.260Z,19.47
2022-11-20T05:48:30.748Z,20.80
2022-11-20T05:53:38.252Z,19.35
2022-11-20T05:58:44.692Z,19.37
2022-11-20T06:03:52.453Z,18.60
2022-11-20T06:08:59.628Z,20.13
2022-11-20T06:14:06.758Z,19.83
2022-11-20T06:19:12.194Z,21.00
2022-11-20T06:24:18.612Z,19.40
2022-11-20T06:29:26.816Z,19.90
2022-11-20T06:34:31.749Z,20.23
2022-11-20T06:39:37.584Z,14.90
2022-11-20T06:44:42.774Z,16.83
2022-11-20T06:49:47.699Z,19.50
2022-11-20T06:54:52.575Z,18.33
2022-11-20T06:59:58.147Z,19.57
2022-11-20T07:05:03.201Z,18.80
2022-11-20T07:10:08.488Z,19.37
2022-11-20T07:15:13.917Z,15.93
2022-11-20T07:20:19.499Z,24.00
2022-11-20T07:25:29.651Z,29.85
2022-11-20T07:30:34.960Z,35.23
2022-11-20T07:35:40.365Z,59.80
2022-11-20T07:40:46.579Z,55.33
2022-11-20T07:45:51.934Z,53.87
2022-11-20T07:50:59.584Z,44.13
2022-11-20T07:56:05.461Z,43.73
2022-11-20T08:01:10.419Z,49.90
2022-11-20T08:06:16.377Z,70.70
2022-11-20T08:11:39.427Z,60.80
2022-11-20T08:16:49.616Z,49.50
2022-11-20T08:21:54.794Z,42.73
2022-11-20T08:27:01.368Z,40.57
2022-11-20T08:32:06.595Z,46.50
2022-11-20T08:37:13.742Z,53.10
2022-11-20T08:42:19.125Z,31.40
2022-11-20T08:47:24.832Z,39.18
2022-11-20T08:52:30.106Z,40.60
2022-11-20T08:57:36.941Z,30.30
2022-11-20T09:02:42.075Z,42.97
2022-11-20T09:07:47.625Z,40.37
2022-11-20T09:12:53.069Z,42.47
2022-11-20T09:18:00.206Z,41.77
2022-11-20T09:23:05.603Z,44.23
2022-11-20T09:28:11.063Z,42.20
2022-11-20T09:33:15.929Z,42.13
2022-11-20T09:38:21.318Z,41.87
2022-11-20T09:43:53.917Z,44.33
2022-11-20T09:49:17.003Z,42.93
2022-11-20T09:54:24.612Z,43.07
2022-11-20T09:59:33.541Z,43.77
2022-11-20T10:04:41.562Z,44.13
2022-11-20T10:09:55.317Z,44.40
2022-11-20T10:15:19.724Z,45.17
2022-11-20T10:20:33.519Z,43.30
2022-11-20T10:26:02.980Z,44.23
2022-11-20T10:31:11.647Z,48.10
2022-11-20T10:36:23.148Z,49.60
2022-11-20T10:41:33.063Z,48.07
2022-11-20T10:46:44.481Z,48.93
2022-11-20T10:51:52.772Z,45.83
2022-11-20T10:57:00.915Z,45.07
2022-11-20T11:02:21.292Z,44.03
2022-11-20T11:07:29.427Z,44.37
2022-11-20T11:12:34.641Z,45.10
2022-11-20T11:17:42.878Z,45.10
2022-11-20T11:22:51.772Z,43.90
2022-11-20T11:27:59.438Z,43.43
2022-11-20T11:33:09.926Z,43.53
2022-11-20T11:38:41.471Z,44.50
2022-11-20T11:44:12.927Z,43.63
2022-11-20T11:49:21.339Z,43.27
2022-11-20T11:54:35.698Z,44.50
2022-11-20T11:59:47.678Z,43.85
2022-11-20T12:05:05.932Z,44.00
2022-11-20T12:10:23.624Z,43.20
2022-11-20T12:15:35.149Z,42.90
2022-11-20T12:20:43.650Z,42.23
2022-11-20T12:25:51.719Z,43.63
2022-11-20T12:31:16.817Z,44.08
2022-11-20T12:36:25.845Z,44.83
2022-11-20T12:42:08.253Z,43.67
2022-11-20T12:47:21.650Z,43.40
2022-11-20T12:52:53.899Z,44.87
2022-11-20T12:58:02.297Z,45.67
2022-11-20T13:03:22.334Z,45.33
2022-11-20T13:08:31.104Z,45.37
2022-11-20T13:13:39.075Z,44.97
2022-11-20T13:18:46.206Z,44.10
2022-11-20T13:23:51.366Z,44.30
2022-11-20T13:29:15.294Z,43.37
2022-11-20T13:34:27.687Z,46.73
2022-11-20T13:39:38.387Z,47.35
2022-11-20T13:44:55.172Z,48.57
2022-11-20T13:55:22.239Z,47.43
2022-11-20T14:00:28.488Z,45.87
2022-11-20T14:05:36.794Z,46.40
2022-11-20T14:10:43.017Z,47.78
2022-11-20T14:15:48.195Z,44.30
2022-11-20T14:20:53.333Z,45.53
2022-11-20T14:25:58.750Z,44.47
2022-11-20T14:31:04.502Z,45.90
2022-11-20T14:36:12.983Z,43.83
2022-11-20T14:41:23.712Z,43.40
2022-11-20T14:46:31.972Z,44.20
2022-11-20T14:51:41.492Z,43.40
2022-11-20T14:56:57.204Z,43.40
2022-11-20T15:02:13.678Z,43.43
2022-11-20T15:07:31.093Z,43.98
2022-11-20T15:12:42.117Z,43.60
2022-11-20T15:17:47.282Z,43.83
2022-11-20T15:22:53.107Z,45.50
2022-11-20T15:27:59.763Z,45.47
2022-11-20T15:33:05.249Z,44.97
2022-11-20T15:38:10.618Z,52.03
2022-11-20T15:43:16.622Z,58.93
2022-11-20T15:48:25.013Z,55.80
2022-11-20T15:53:30.576Z,49.77
2022-11-20T15:58:36.003Z,50.27
2022-11-20T16:03:41.698Z,42.83
2022-11-20T16:08:47.171Z,47.30
2022-11-20T16:14:11.159Z,48.67
2022-11-20T16:19:17.316Z,54.47
2022-11-20T16:24:22.945Z,30.77
2022-11-20T16:29:28.494Z,45.35
2022-11-20T16:34:33.814Z,47.90
2022-11-20T16:39:39.697Z,61.53
2022-11-20T16:44:49.449Z,48.67
2022-11-20T16:49:54.796Z,49.77
2022-11-20T16:55:01.049Z,50.03
2022-11-20T17:00:07.264Z,45.78
2022-11-20T17:05:13.404Z,46.73
2022-11-20T17:10:18.968Z,48.20
2022-11-20T17:15:24.325Z,47.20
2022-11-20T17:20:31.073Z,48.03
2022-11-20T17:25:36.828Z,47.43
2022-11-20T17:30:42.467Z,42.93
2022-11-20T17:35:48.001Z,42.90
2022-11-20T17:40:53.918Z,44.80
2022-11-20T17:46:00.934Z,45.17
2022-11-20T17:51:07.513Z,43.63
2022-11-20T17:56:31.596Z,43.40
2022-11-20T18:01:38.250Z,48.03
2022-11-20T18:06:43.851Z,46.67
2022-11-20T18:11:48.971Z,45.23
2022-11-20T18:16:57.180Z,46.77
2022-11-20T18:22:04.269Z,60.57
2022-11-20T18:27:12.656Z,49.60
2022-11-20T18:32:18.348Z,59.03
2022-11-20T18:37:24.041Z,40.98
2022-11-20T18:42:47.081Z,50.28
2022-11-20T18:47:52.331Z,43.67
2022-11-20T18:52:58.116Z,40.53
2022-11-20T18:58:03.849Z,44.83
2022-11-20T19:03:09.233Z,43.33
2022-11-20T19:08:15.492Z,42.38
2022-11-20T19:13:20.699Z,37.83
2022-11-20T19:18:26.562Z,40.77
2022-11-20T19:23:33.201Z,40.20
2022-11-20T19:28:40.061Z,47.50
2022-11-20T19:33:46.744Z,78.78
2022-11-20T19:38:54.073Z,39.37
2022-11-20T19:44:02.418Z,38.38
2022-11-20T19:49:10.302Z,37.93
2022-11-20T19:54:17.931Z,37.03
2022-11-20T19:59:23.629Z,34.60
2022-11-20T20:04:29.302Z,36.38
2022-11-20T20:09:35.325Z,33.30
2022-11-20T20:14:40.238Z,34.97
2022-11-20T20:19:45.964Z,35.27
2022-11-20T20:24:52.347Z,36.80
2022-11-20T20:35:04.290Z,36.23
2022-11-20T20:40:14.878Z,32.40
2022-11-20T20:45:17.679Z,32.37
2022-11-20T20:50:23.789Z,32.00
2022-11-20T20:55:29.287Z,32.77
2022-11-20T21:00:34.121Z,32.20
2022-11-20T21:05:39.327Z,32.15
2022-11-20T21:10:44.758Z,31.23
2022-11-20T21:21:15.520Z,35.50
2022-11-20T21:26:21.782Z,34.17
2022-11-20T21:36:33.994Z,32.20
2022-11-20T21:41:40.061Z,33.28
2022-11-20T21:46:47.602Z,30.80
2022-11-20T21:51:53.716Z,32.93
2022-11-20T21:56:59.806Z,32.75
2022-11-20T22:02:04.864Z,35.83
2022-11-20T22:07:10.029Z,33.67
2022-11-20T22:12:15.418Z,31.23
2022-11-20T22:17:22.286Z,37.97
2022-11-20T22:27:32.787Z,35.08
2022-11-20T22:32:37.888Z,29.48
2022-11-20T22:37:43.928Z,21.95
2022-11-20T22:42:49.332Z,31.13
2022-11-20T22:47:54.533Z,29.95
2022-11-20T22:53:00.111Z,28.27
2022-11-20T22:58:05.763Z,21.80
2022-11-20T23:03:11.512Z,31.90
2022-11-20T23:08:16.880Z,28.17
2022-11-20T23:13:21.828Z,26.97
2022-11-20T23:18:27.786Z,28.03
2022-11-20T23:23:34.056Z,25.33
2022-11-20T23:28:40.016Z,24.15
2022-11-20T23:33:46.846Z,25.27
2022-11-20T23:38:52.500Z,24.20
2022-11-20T23:43:57.870Z,27.98
2022-11-20T23:49:02.820Z,25.50
2022-11-20T23:54:08.277Z,25.50
2022-11-20T23:59:13.930Z,34.27
